Time;durP1;ratioP1;P1;durP2;ratioP2;P2;SDS_P1;SDS_P2;PMS_P1;PMS_P2;Temp;Humidity;BMP_temperature;BMP_pressure;BME280_temperature;BME280_humidity;BME280_pressure;Samples;Min_cycle;Max_cycle;Signal;HPM_P1;HPM_P2
2021/12/05 00:18:10;;;;;;;6.40;1.60;;;5.80;99.90;;;;;;6215696;23;20007;-88
2021/12/05 00:23:27;;;;;;;7.22;1.60;;;5.60;99.90;;;;;;6215793;23;20044;-89
2021/12/05 00:25:55;;;;;;;9.82;1.90;;;5.50;99.90;;;;;;6189143;23;20448;-90
2021/12/05 00:28:55;;;;;;;9.40;1.90;;;5.70;99.90;;;;;;6188560;23;19996;-90
2021/12/05 00:34:31;;;;;;;5.50;1.90;;;5.40;99.90;;;;;;6154888;23;20007;-89
2021/12/05 00:43:04;;;;;;;11.00;2.10;;;5.50;99.90;;;;;;6215842;23;20004;-91
2021/12/05 00:48:04;;;;;;;6.32;1.90;;;5.30;99.90;;;;;;6217021;23;20007;-90
2021/12/05 00:53:50;;;;;;;7.60;1.67;;;5.30;99.90;;;;;;6215326;23;20011;-90
2021/12/05 01:01:59;;;;;;;6.18;1.85;;;5.30;99.90;;;;;;6214959;23;20073;-89
2021/12/05 01:09:32;;;;;;;7.10;1.50;;;5.30;99.90;;;;;;6215428;23;20005;-91
2021/12/05 01:12:10;;;;;;;6.30;1.98;;;5.30;99.90;;;;;;6188150;23;20013;-90
2021/12/05 01:17:24;;;;;;;7.90;2.00;;;5.20;99.90;;;;;;6214850;23;20012;-90
2021/12/05 01:19:50;;;;;;;6.90;2.05;;;5.30;99.90;;;;;;6188282;23;20033;-88
2021/12/05 01:22:19;;;;;;;8.38;2.50;;;5.30;99.90;;;;;;6188004;23;20004;-90
2021/12/05 01:30:00;;;;;;;7.32;1.80;;;5.30;99.90;;;;;;6214876;23;20092;-90
2021/12/05 01:32:47;;;;;;;7.32;1.80;;;5.30;99.90;;;;;;6188114;23;20082;-90
2021/12/05 01:46:28;;;;;;;14.55;3.40;;;5.90;99.90;;;;;;6215107;23;20058;-89
2021/12/05 01:53:51;;;;;;;9.70;2.08;;;5.40;99.90;;;;;;6214626;23;20039;-89
2021/12/05 02:34:41;;;;;;;9.13;1.83;;;5.00;99.90;;;;;;6213948;23;20043;-89
2021/12/05 02:42:47;;;;;;;10.90;2.35;;;4.90;99.90;;;;;;6214113;23;20095;-90
2021/12/05 02:45:13;;;;;;;10.77;2.13;;;4.90;99.90;;;;;;6187864;23;20008;-89
2021/12/05 02:47:46;;;;;;;13.02;2.33;;;4.80;99.90;;;;;;6188227;23;20012;-90
2021/12/05 02:50:13;;;;;;;9.80;2.15;;;4.90;99.90;;;;;;6187749;23;20027;-89
2021/12/05 02:52:41;;;;;;;17.08;1.95;;;4.90;99.90;;;;;;6214528;23;20071;-90
2021/12/05 02:55:14;;;;;;;8.43;1.83;;;4.90;99.90;;;;;;6187198;23;20013;-90
2021/12/05 03:00:13;;;;;;;11.68;2.17;;;4.80;99.90;;;;;;6214412;23;20005;-89
2021/12/05 03:02:42;;;;;;;11.15;2.10;;;4.90;99.90;;;;;;6187567;23;20004;-90
2021/12/05 03:05:11;;;;;;;6.47;1.95;;;5.10;99.90;;;;;;6187549;23;20310;-89
2021/12/05 03:07:38;;;;;;;7.53;3.35;;;5.00;99.90;;;;;;6187248;23;20017;-89
2021/12/05 03:10:05;;;;;;;7.80;1.65;;;4.90;99.90;;;;;;6187547;23;20086;-90
2021/12/05 03:12:34;;;;;;;8.85;2.42;;;4.90;99.90;;;;;;6187509;23;20009;-89
2021/12/05 03:15:04;;;;;;;12.82;2.13;;;4.90;99.90;;;;;;6187339;23;20345;-89
2021/12/05 03:17:30;;;;;;;10.63;2.33;;;4.80;99.90;;;;;;6187789;23;20534;-89
2021/12/05 03:19:56;;;;;;;8.38;1.77;;;4.80;99.90;;;;;;6187439;23;20001;-89
2021/12/05 03:22:21;;;;;;;10.75;1.90;;;4.80;99.90;;;;;;6187306;23;20111;-91
2021/12/05 03:24:48;;;;;;;11.30;2.10;;;4.70;99.90;;;;;;6187869;23;20005;-90
2021/12/05 03:27:14;;;;;;;16.92;3.45;;;4.90;99.90;;;;;;6186807;23;20008;-89
2021/12/05 03:29:40;;;;;;;15.70;2.40;;;4.60;99.90;;;;;;6187579;23;20007;-89
2021/12/05 03:32:06;;;;;;;6.00;1.67;;;4.60;99.90;;;;;;6187695;23;20452;-90
2021/12/05 03:34:33;;;;;;;8.48;2.20;;;4.60;99.90;;;;;;6214084;23;20072;-90
2021/12/05 03:37:00;;;;;;;9.02;1.88;;;4.70;99.90;;;;;;6187532;23;20043;-89
2021/12/05 03:39:27;;;;;;;6.95;2.00;;;4.60;99.90;;;;;;6187065;23;20039;-90
2021/12/05 03:41:53;;;;;;;9.45;1.90;;;4.60;99.90;;;;;;6187296;23;20045;-89
2021/12/05 03:44:20;;;;;;;7.68;1.85;;;4.60;99.90;;;;;;6214030;23;19996;-91
2021/12/05 03:46:48;;;;;;;10.52;1.80;;;4.60;99.90;;;;;;6187553;23;20039;-89
2021/12/05 03:49:15;;;;;;;11.90;1.92;;;4.50;99.90;;;;;;6187897;23;20051;-92
2021/12/05 03:51:48;;;;;;;6.72;1.50;;;4.50;99.90;;;;;;6187750;23;20053;-89
2021/12/05 03:54:14;;;;;;;9.40;2.10;;;4.50;99.90;;;;;;6187622;23;20039;-90
2021/12/05 03:56:40;;;;;;;6.45;1.77;;;4.40;99.90;;;;;;6187231;23;20009;-90
2021/12/05 03:59:09;;;;;;;4.30;1.60;;;5.00;99.90;;;;;;6186961;23;20013;-88
2021/12/05 04:01:35;;;;;;;10.90;1.73;;;4.50;99.90;;;;;;6187467;23;20024;-90
2021/12/05 04:04:02;;;;;;;9.77;1.67;;;4.50;99.90;;;;;;6189146;23;20005;-90
2021/12/05 04:06:29;;;;;;;10.43;1.88;;;4.50;99.90;;;;;;6171220;23;20433;-90
2021/12/05 04:08:57;;;;;;;6.20;1.80;;;4.60;99.90;;;;;;6159429;23;20088;-89
2021/12/05 04:11:30;;;;;;;12.93;2.67;;;4.60;99.90;;;;;;6159330;23;20005;-90
2021/12/05 04:13:56;;;;;;;6.22;1.98;;;4.60;99.90;;;;;;6159458;23;20416;-89
2021/12/05 04:16:22;;;;;;;14.25;2.00;;;4.50;99.90;;;;;;6159423;23;20469;-90
2021/12/05 04:18:48;;;;;;;5.50;1.25;;;4.50;99.90;;;;;;6159703;23;20004;-89
2021/12/05 04:21:16;;;;;;;11.10;1.98;;;4.50;99.90;;;;;;6159800;23;20012;-90
2021/12/05 04:23:43;;;;;;;8.80;1.70;;;4.50;99.90;;;;;;6184841;23;20441;-89
2021/12/05 04:26:09;;;;;;;9.75;1.83;;;4.50;99.90;;;;;;6158836;23;20009;-89
2021/12/05 04:28:36;;;;;;;12.20;1.60;;;4.50;99.90;;;;;;6159203;23;20005;-90
2021/12/05 04:31:03;;;;;;;5.78;1.60;;;4.50;99.90;;;;;;6159285;23;20345;-90
2021/12/05 04:33:29;;;;;;;8.63;1.52;;;4.50;99.90;;;;;;6158808;23;20036;-89
2021/12/05 04:35:55;;;;;;;4.70;1.45;;;4.40;99.90;;;;;;6159209;23;20012;-90
2021/12/05 04:38:20;;;;;;;10.30;1.63;;;4.40;99.90;;;;;;6159325;23;20012;-90
2021/12/05 04:40:48;;;;;;;10.30;1.50;;;4.70;99.90;;;;;;6159703;23;20009;-90
2021/12/05 04:43:14;;;;;;;7.88;2.13;;;4.40;99.90;;;;;;6159479;23;20005;-91
2021/12/05 04:45:40;;;;;;;4.43;1.25;;;4.50;99.90;;;;;;6186663;23;20031;-90
2021/12/05 04:48:07;;;;;;;8.88;1.88;;;4.50;99.90;;;;;;6177110;23;20009;-89
2021/12/05 04:50:35;;;;;;;9.05;1.75;;;4.60;99.90;;;;;;6164200;23;20333;-90
2021/12/05 04:53:01;;;;;;;9.07;1.63;;;4.40;99.90;;;;;;6158992;23;20005;-90
2021/12/05 04:55:27;;;;;;;7.13;1.50;;;4.30;99.90;;;;;;6185343;23;20452;-90
2021/12/05 04:57:54;;;;;;;3.15;1.38;;;4.40;99.90;;;;;;6159320;23;20013;-90
2021/12/05 05:00:31;;;;;;;7.72;1.60;;;4.40;99.90;;;;;;6159302;23;20008;-90
2021/12/05 05:02:57;;;;;;;17.88;2.15;;;4.40;99.90;;;;;;6158663;23;20041;-89
2021/12/05 05:05:26;;;;;;;6.50;1.55;;;4.50;99.90;;;;;;6163517;23;20004;-90
2021/12/05 05:07:53;;;;;;;9.80;1.83;;;4.40;99.90;;;;;;6188591;23;20005;-91
2021/12/05 05:10:30;;;;;;;8.50;1.88;;;4.40;99.90;;;;;;6189050;23;20009;-92
2021/12/05 05:12:56;;;;;;;16.30;3.03;;;4.40;99.90;;;;;;6188618;23;20005;-91
2021/12/05 05:15:26;;;;;;;8.35;1.83;;;4.30;99.90;;;;;;6188472;23;20087;-90
2021/12/05 05:17:53;;;;;;;8.57;1.90;;;4.40;99.90;;;;;;6188685;23;20058;-90
2021/12/05 05:23:07;;;;;;;11.60;1.88;;;4.40;99.90;;;;;;6215850;23;20467;-91
2021/12/05 05:30:47;;;;;;;13.15;2.83;;;4.50;99.90;;;;;;6215161;23;20004;-89
2021/12/05 05:42:12;;;;;;;16.88;3.78;;;4.40;99.90;;;;;;6214581;23;20120;-89
2021/12/05 05:44:36;;;;;;;13.68;2.00;;;4.40;99.90;;;;;;6214697;23;20007;-88
2021/12/05 05:52:13;;;;;;;10.57;2.10;;;4.50;99.90;;;;;;6214661;23;20011;-90
2021/12/05 05:54:39;;;;;;;8.30;1.67;;;4.40;99.90;;;;;;6188201;23;20040;-89
2021/12/05 06:00:16;;;;;;;12.35;2.20;;;4.40;99.90;;;;;;6188954;23;20425;-89
2021/12/05 06:05:29;;;;;;;13.27;2.30;;;4.60;99.90;;;;;;6214778;23;20019;-90
2021/12/05 06:07:55;;;;;;;31.17;9.63;;;4.40;99.90;;;;;;6188254;23;20015;-90
2021/12/05 06:10:26;;;;;;;15.98;4.38;;;4.50;99.90;;;;;;6188648;23;20005;-90
2021/12/05 06:12:53;;;;;;;14.60;4.32;;;4.50;99.90;;;;;;6188435;23;20019;-90
2021/12/05 06:15:21;;;;;;;10.13;2.53;;;4.60;99.90;;;;;;6188028;23;20044;-90
2021/12/05 06:17:47;;;;;;;;;;;4.60;99.90;;;;;;6215053;23;20000;-88
2021/12/05 06:20:17;;;;;;;14.48;2.75;;;4.30;99.90;;;;;;6187718;23;19938;-88
2021/12/05 06:22:47;;;;;;;11.73;2.67;;;4.30;99.90;;;;;;6187821;23;20030;-89
2021/12/05 06:25:19;;;;;;;18.42;2.38;;;4.40;99.90;;;;;;6187857;23;20139;-91
2021/12/05 06:27:47;;;;;;;16.27;2.38;;;4.40;99.90;;;;;;6187728;23;20012;-89
2021/12/05 06:41:13;;;;;;;10.82;3.05;;;4.30;99.90;;;;;;6214363;23;20012;-91
2021/12/05 06:46:18;;;;;;;12.50;2.50;;;4.30;99.90;;;;;;6215090;23;20004;-93
2021/12/05 06:48:45;;;;;;;14.80;2.25;;;4.40;99.90;;;;;;6188082;23;20032;-91
2021/12/05 06:51:20;;;;;;;12.57;2.30;;;4.40;99.90;;;;;;6187416;23;20397;-90
2021/12/05 06:53:46;;;;;;;13.82;3.03;;;4.40;99.90;;;;;;6187137;23;20433;-89
2021/12/05 06:56:12;;;;;;;15.15;3.13;;;4.70;99.90;;;;;;6187501;23;20016;-90
2021/12/05 06:58:38;;;;;;;14.57;3.05;;;4.40;99.90;;;;;;6188132;23;20088;-90
2021/12/05 07:01:07;;;;;;;15.80;2.70;;;5.00;99.90;;;;;;6187493;23;20004;-90
2021/12/05 07:03:34;;;;;;;13.15;2.53;;;4.50;99.90;;;;;;6187248;23;20012;-90
2021/12/05 07:06:11;;;;;;;17.70;2.88;;;4.50;99.90;;;;;;6213784;23;20503;-90
2021/12/05 07:08:40;;;;;;;15.18;2.60;;;4.70;99.90;;;;;;6187492;23;20088;-91
2021/12/05 07:11:24;;;;;;;13.40;2.60;;;4.60;99.90;;;;;;6191552;23;20008;-90
2021/12/05 07:14:31;;;;;;;16.35;2.92;;;4.60;99.90;;;;;;6142670;23;20049;-90
2021/12/05 07:44:41;;;;;;;17.45;2.95;;;4.40;99.90;;;;;;6158157;23;20001;-92
2021/12/05 07:47:17;;;;;;;12.80;2.75;;;4.30;99.90;;;;;;6205954;23;20000;-92
2021/12/05 07:49:56;;;;;;;15.57;2.67;;;4.30;99.90;;;;;;6206440;23;20513;-94
2021/12/05 07:52:26;;;;;;;15.55;3.05;;;4.60;99.90;;;;;;6197587;23;20001;-90
2021/12/05 07:55:16;;;;;;;18.10;3.13;;;4.40;99.90;;;;;;6224577;23;20007;-89
2021/12/05 07:58:07;;;;;;;18.58;3.00;;;4.30;99.90;;;;;;6198319;23;20046;-89
2021/12/05 08:01:15;;;;;;;13.40;2.83;;;4.30;99.90;;;;;;6222528;23;19996;-89
2021/12/05 08:15:07;;;;;;;23.48;5.00;;;4.20;99.90;;;;;;6242191;23;20027;-90
2021/12/05 08:17:54;;;;;;;17.55;3.63;;;4.20;99.90;;;;;;6214778;23;20020;-89
2021/12/05 08:20:57;;;;;;;25.73;4.05;;;4.30;99.90;;;;;;6140591;23;20498;-91
2021/12/05 08:23:24;;;;;;;11.52;3.10;;;4.70;99.90;;;;;;6143407;23;20017;-90
2021/12/05 08:26:03;;;;;;;15.68;3.40;;;4.60;99.90;;;;;;6131518;23;20108;-90
2021/12/05 08:31:17;;;;;;;22.92;4.07;;;4.70;99.90;;;;;;6130458;23;20025;-89
2021/12/05 08:42:39;;;;;;;26.33;3.63;;;4.50;99.90;;;;;;6131681;23;20005;-90
2021/12/05 09:21:09;;;;;;;23.52;3.35;;;6.10;99.90;;;;;;6227644;23;20357;-88
2021/12/05 09:24:04;;;;;;;18.02;3.55;;;6.30;99.90;;;;;;6225953;23;20005;-89
2021/12/05 10:06:40;;;;;;;21.52;3.33;;;7.50;99.90;;;;;;6229233;23;20015;-89
2021/12/05 10:09:06;;;;;;;28.77;3.65;;;7.70;99.90;;;;;;6229708;23;20019;-89
2021/12/05 10:11:40;;;;;;;28.90;4.05;;;7.90;99.90;;;;;;6189006;23;20013;-93
2021/12/05 10:27:14;;;;;;;20.80;3.88;;;8.30;99.90;;;;;;6216812;23;20011;-93
2021/12/05 10:38:03;;;;;;;22.98;3.70;;;8.40;98.70;;;;;;6228110;23;20365;-88
2021/12/05 10:40:41;;;;;;;18.10;3.28;;;8.50;98.70;;;;;;6194931;23;20008;-87
2021/12/05 10:43:14;;;;;;;15.18;2.22;;;8.70;97.10;;;;;;6216785;23;20024;-92
2021/12/05 10:46:13;;;;;;;24.52;3.65;;;8.70;97.50;;;;;;6188431;23;20008;-90
2021/12/05 10:49:12;;;;;;;25.42;3.03;;;8.50;97.60;;;;;;6189290;23;20000;-90
2021/12/05 10:51:45;;;;;;;13.85;3.08;;;8.40;97.90;;;;;;6209043;23;20008;-89
2021/12/05 10:54:40;;;;;;;;;;;;;;;;;;;;;
2021/12/05 10:57:16;;;;;;;92.18;29.67;;;8.40;96.80;;;;;;6220556;23;20047;-92
2021/12/05 10:59:42;;;;;;;30.13;8.05;;;8.40;98.10;;;;;;6191868;23;20007;-88
2021/12/05 11:02:17;;;;;;;32.40;9.85;;;8.50;97.20;;;;;;6219011;23;20393;-86
2021/12/05 11:05:06;;;;;;;37.92;9.20;;;8.50;97.90;;;;;;6159576;23;20008;-94
2021/12/05 11:07:38;;;;;;;26.67;7.47;;;8.50;97.90;;;;;;6166971;23;20010;-89
2021/12/05 11:10:10;;;;;;;40.25;13.77;;;8.50;98.10;;;;;;6164391;23;20141;-92
2021/12/05 11:12:37;;;;;;;26.35;4.85;;;8.70;97.80;;;;;;6134645;23;20006;-91
2021/12/05 11:15:11;;;;;;;31.38;10.57;;;8.90;95.40;;;;;;6154115;23;20068;-92
2021/12/05 11:17:43;;;;;;;25.67;7.25;;;9.00;94.90;;;;;;6155994;23;20012;-91
2021/12/05 11:20:29;;;;;;;81.47;9.65;;;9.20;95.40;;;;;;6131137;23;20006;-92
2021/12/05 11:22:58;;;;;;;23.27;5.88;;;9.20;96.10;;;;;;6157471;23;20009;-92
2021/12/05 11:29:40;;;;;;;24.75;3.60;;;9.00;95.70;;;;;;6061882;23;20014;-93
2021/12/05 11:35:33;;;;;;;;;;;9.10;96.40;;;;;;6023956;23;20498;-94
2021/12/05 11:45:04;;;;;;;;;;;;;;;;;;;;;
2021/12/05 11:48:13;;;;;;;23.75;5.05;;;9.00;99.40;;;;;;6192549;23;20032;-91
2021/12/05 11:50:39;;;;;;;24.65;6.82;;;8.50;99.90;;;;;;6011465;23;20494;-89
2021/12/05 11:53:08;;;;;;;15.85;2.78;;;8.10;99.90;;;;;;6196583;23;20005;-94
2021/12/05 11:55:58;;;;;;;;;;;;;;;;;;;;;
2021/12/05 11:58:24;;;;;;;16.60;4.65;;;7.90;99.90;;;;;;6190232;23;20031;-89
2021/12/05 12:01:06;;;;;;;24.52;5.68;;;7.90;99.90;;;;;;6186939;23;20005;-92
2021/12/05 12:03:34;;;;;;;14.60;4.72;;;7.80;99.90;;;;;;6186316;23;20095;-93
2021/12/05 12:06:05;;;;;;;19.25;5.82;;;7.90;99.90;;;;;;6185364;23;20005;-92
2021/12/05 12:08:40;;;;;;;17.42;4.38;;;7.90;99.90;;;;;;6184899;23;20281;-90
2021/12/05 12:11:06;;;;;;;16.50;5.57;;;8.00;99.90;;;;;;6184985;23;20031;-91
2021/12/05 12:14:00;;;;;;;;;;;;;;;;;;;;;
2021/12/05 12:16:33;;;;;;;17.95;4.28;;;8.10;99.90;;;;;;6183830;23;20096;-91
2021/12/05 12:19:21;;;;;;;13.43;2.90;;;8.20;99.90;;;;;;6188806;23;20438;-94
2021/12/05 12:22:08;;;;;;;14.10;2.63;;;8.00;99.90;;;;;;6197454;23;20001;-95
2021/12/05 12:24:36;;;;;;;11.05;3.97;;;7.90;99.90;;;;;;6188279;23;20349;-92
2021/12/05 12:36:47;;;;;;;11.00;2.60;;;7.50;99.90;;;;;;6075410;23;20022;-94
2021/12/05 12:39:57;;;;;;;14.45;3.65;;;7.30;99.90;;;;;;6069487;23;20093;-90
2021/12/05 12:42:28;;;;;;;9.30;2.25;;;7.20;99.90;;;;;;6062564;23;20011;-89
2021/12/05 12:45:16;;;;;;;12.48;2.78;;;7.30;99.90;;;;;;6154109;23;20088;-90
2021/12/05 12:47:53;;;;;;;;;;;7.30;99.90;;;;;;6156464;23;20056;-90
2021/12/05 12:50:27;;;;;;;23.90;2.97;;;7.20;99.90;;;;;;6155583;23;19900;-89
2021/12/05 12:53:24;;;;;;;15.23;2.60;;;7.00;99.90;;;;;;6154355;23;20024;-89
2021/12/05 12:56:06;;;;;;;16.67;5.53;;;7.00;99.90;;;;;;6154930;23;20045;-92
2021/12/05 12:58:47;;;;;;;14.05;2.97;;;7.00;99.90;;;;;;6155193;23;20021;-91
2021/12/05 13:01:19;;;;;;;25.38;7.50;;;6.90;99.90;;;;;;6154773;23;20002;-89
2021/12/05 13:10:01;;;;;;;15.07;4.07;;;6.90;99.90;;;;;;6156230;23;20009;-89
2021/12/05 13:10:43;;;;;;;15.07;5.28;;;6.90;99.90;;;;;;6155638;23;20005;-89
2021/12/05 13:13:28;;;;;;;10.23;3.67;;;6.90;99.90;;;;;;6153846;23;20005;-90
2021/12/05 13:16:09;;;;;;;14.00;3.25;;;6.90;99.90;;;;;;6155554;23;20021;-87
2021/12/05 13:18:38;;;;;;;10.02;2.35;;;6.80;99.90;;;;;;6153952;23;20009;-89
2021/12/05 13:21:13;;;;;;;30.13;8.98;;;6.80;99.90;;;;;;6154247;23;20095;-91
2021/12/05 13:23:48;;;;;;;16.38;4.30;;;6.80;99.90;;;;;;6153873;23;20016;-90
2021/12/05 13:26:42;;;;;;;12.50;2.58;;;7.20;99.90;;;;;;6154285;23;20016;-90
2021/12/05 13:29:23;;;;;;;26.02;8.98;;;6.90;99.90;;;;;;6153809;23;20025;-92
2021/12/05 13:32:13;;;;;;;19.98;9.05;;;6.90;99.90;;;;;;6155515;23;19999;-92
2021/12/05 13:34:48;;;;;;;9.07;2.20;;;7.00;99.90;;;;;;6153088;23;20005;-91
2021/12/05 13:37:15;;;;;;;14.02;6.32;;;6.90;99.90;;;;;;6154325;23;20020;-91
2021/12/05 13:39:47;;;;;;;10.75;2.30;;;6.80;99.90;;;;;;6154076;23;20001;-92
2021/12/05 13:42:42;;;;;;;26.30;9.82;;;6.80;99.90;;;;;;6154633;23;20442;-92
2021/12/05 13:45:45;;;;;;;;;;;;;;;;;;;;;
2021/12/05 13:48:26;;;;;;;12.02;3.00;;;6.90;99.90;;;;;;6153603;23;20085;-91
2021/12/05 13:51:04;;;;;;;16.88;6.65;;;7.10;99.90;;;;;;6154116;23;20005;-94
2021/12/05 13:53:51;;;;;;;;;;;7.10;99.90;;;;;;6154785;23;20338;-93
2021/12/05 13:56:26;;;;;;;12.20;2.13;;;7.20;99.90;;;;;;6154011;23;19909;-93
2021/12/05 13:58:59;;;;;;;14.23;2.65;;;7.10;99.90;;;;;;6154125;23;20005;-93
2021/12/05 14:01:47;;;;;;;13.13;2.90;;;7.10;99.90;;;;;;6154613;23;20060;-93
2021/12/05 14:04:16;;;;;;;21.77;2.92;;;7.10;99.90;;;;;;6154258;23;20009;-91
2021/12/05 14:07:05;;;;;;;11.98;2.20;;;7.30;99.90;;;;;;6153977;23;20013;-93
2021/12/05 14:09:40;;;;;;;16.60;3.05;;;7.40;99.90;;;;;;6154003;23;20037;-90
2021/12/05 14:12:15;;;;;;;15.27;2.60;;;7.60;99.90;;;;;;6153650;23;20010;-91
2021/12/05 14:14:45;;;;;;;15.68;3.05;;;7.60;99.90;;;;;;6153630;23;20012;-90
2021/12/05 14:17:11;;;;;;;13.20;2.58;;;7.80;99.90;;;;;;6153543;23;20056;-90
2021/12/05 14:19:39;;;;;;;18.13;3.97;;;7.90;99.90;;;;;;6153970;23;20009;-91
2021/12/05 14:22:06;;;;;;;;;;;8.10;99.90;;;;;;6155711;23;20009;-95
2021/12/05 14:24:43;;;;;;;15.75;2.85;;;8.00;99.90;;;;;;6153800;23;19900;-92
2021/12/05 14:27:15;;;;;;;13.85;3.15;;;8.00;99.90;;;;;;6155314;23;20677;-92
2021/12/05 14:29:43;;;;;;;21.80;2.90;;;7.80;99.90;;;;;;6154709;23;20035;-92
2021/12/05 14:32:12;;;;;;;15.27;2.90;;;7.70;99.90;;;;;;6153702;23;20446;-91
2021/12/05 14:34:39;;;;;;;9.32;1.95;;;7.60;99.90;;;;;;6153986;23;20006;-93
2021/12/05 14:37:12;;;;;;;11.82;1.92;;;7.50;99.90;;;;;;6154784;23;20024;-92
2021/12/05 14:40:04;;;;;;;11.50;2.10;;;7.30;99.90;;;;;;6156038;23;20040;-91
2021/12/05 14:42:32;;;;;;;14.75;3.45;;;7.30;99.90;;;;;;6148608;23;20009;-90
2021/12/05 14:45:21;;;;;;;24.02;3.60;;;7.30;99.90;;;;;;6153091;23;20043;-92
2021/12/05 14:47:48;;;;;;;14.32;3.53;;;7.20;99.90;;;;;;6153941;23;20001;-92
2021/12/05 14:50:23;;;;;;;17.25;2.45;;;7.30;99.90;;;;;;6156633;23;20009;-92
2021/12/05 14:52:52;;;;;;;11.35;2.75;;;7.30;99.90;;;;;;6160213;23;20008;-92
2021/12/05 14:55:21;;;;;;;19.08;3.92;;;7.20;99.90;;;;;;6136151;23;20010;-91
2021/12/05 14:57:51;;;;;;;16.27;4.72;;;7.20;99.90;;;;;;6158112;23;20013;-90
2021/12/05 15:00:27;;;;;;;13.00;3.30;;;7.20;99.90;;;;;;6153976;23;20453;-91
2021/12/05 15:03:27;;;;;;;33.42;8.98;;;7.30;99.90;;;;;;6152329;23;20006;-90
2021/12/05 15:06:03;;;;;;;20.08;3.90;;;7.40;99.90;;;;;;6090904;23;20006;-92
2021/12/05 15:08:30;;;;;;;27.52;3.75;;;7.40;99.90;;;;;;6128967;23;20076;-94
2021/12/05 15:10:59;;;;;;;25.88;5.18;;;7.40;99.90;;;;;;6152951;23;20060;-92
2021/12/05 15:13:25;;;;;;;20.60;6.10;;;7.50;99.90;;;;;;6154169;23;20009;-91
2021/12/05 15:15:51;;;;;;;26.38;3.70;;;7.50;99.90;;;;;;6153007;23;20041;-92
2021/12/05 15:18:24;;;;;;;16.55;2.83;;;7.60;99.90;;;;;;6152548;23;20005;-92
2021/12/05 15:20:50;;;;;;;19.08;3.75;;;7.60;99.90;;;;;;6154791;23;20002;-93
2021/12/05 15:23:16;;;;;;;19.95;4.05;;;7.70;99.90;;;;;;6150213;23;20012;-90
2021/12/05 15:25:43;;;;;;;13.65;4.22;;;7.70;99.90;;;;;;6151705;23;20009;-92
2021/12/05 15:28:11;;;;;;;22.33;4.57;;;7.70;99.90;;;;;;6151386;23;20496;-90
2021/12/05 15:30:39;;;;;;;17.25;5.88;;;7.80;99.90;;;;;;6151019;23;20013;-90
2021/12/05 15:33:08;;;;;;;26.55;5.80;;;7.80;99.90;;;;;;6153122;23;20002;-91
2021/12/05 15:35:35;;;;;;;20.10;4.45;;;7.90;99.90;;;;;;6152606;23;20062;-89
2021/12/05 15:38:06;;;;;;;23.83;4.68;;;8.00;99.90;;;;;;6152679;23;20012;-88
2021/12/05 15:40:34;;;;;;;23.52;5.15;;;7.80;99.90;;;;;;6151977;23;20080;-91
2021/12/05 15:43:03;;;;;;;15.48;4.95;;;7.80;99.90;;;;;;6152551;23;20076;-89
2021/12/05 15:45:30;;;;;;;20.52;4.35;;;7.90;99.90;;;;;;6153672;23;20024;-90
2021/12/05 15:47:56;;;;;;;25.33;3.45;;;7.90;99.90;;;;;;6153060;23;20045;-89
2021/12/05 15:50:25;;;;;;;16.35;3.72;;;7.90;99.90;;;;;;6152446;23;20323;-88
2021/12/05 15:52:55;;;;;;;37.10;10.48;;;7.90;99.90;;;;;;6152843;23;20357;-91
2021/12/05 15:55:32;;;;;;;18.55;3.00;;;7.90;99.90;;;;;;6153195;23;20310;-93
2021/12/05 15:58:11;;;;;;;20.42;5.75;;;7.90;99.90;;;;;;6154404;23;20105;-90
2021/12/05 16:00:47;;;;;;;24.77;6.05;;;8.00;99.90;;;;;;6154280;23;20006;-90
2021/12/05 16:03:19;;;;;;;23.88;3.40;;;7.90;99.90;;;;;;6154321;23;20006;-93
2021/12/05 16:05:51;;;;;;;16.25;3.50;;;7.90;99.90;;;;;;6154413;23;20010;-91
2021/12/05 16:08:17;;;;;;;28.77;7.57;;;8.00;99.90;;;;;;6154820;23;20028;-92
2021/12/05 16:10:49;;;;;;;20.73;5.30;;;8.00;99.90;;;;;;6154125;23;20327;-90
2021/12/05 16:13:22;;;;;;;18.65;4.03;;;8.00;99.90;;;;;;6155224;23;20006;-89
2021/12/05 16:15:50;;;;;;;18.00;2.83;;;8.00;99.90;;;;;;6154624;23;20104;-88
2021/12/05 16:18:16;;;;;;;11.90;2.72;;;7.90;99.90;;;;;;6155564;23;20012;-91
2021/12/05 16:20:44;;;;;;;8.30;2.38;;;7.70;99.90;;;;;;6154802;23;20005;-91
2021/12/05 16:23:26;;;;;;;5.93;2.22;;;7.50;99.90;;;;;;6154840;23;20013;-90
2021/12/05 16:26:06;;;;;;;14.65;2.70;;;7.30;99.90;;;;;;6154909;23;20010;-89
2021/12/05 16:28:36;;;;;;;12.82;3.05;;;7.30;99.90;;;;;;6153850;23;20085;-89
2021/12/05 16:31:19;;;;;;;13.73;3.80;;;7.30;99.90;;;;;;6153682;23;20009;-92
2021/12/05 16:33:50;;;;;;;14.52;4.50;;;7.30;99.90;;;;;;6153984;23;20002;-88
2021/12/05 16:36:17;;;;;;;17.33;3.90;;;7.20;99.90;;;;;;6153194;23;20456;-90
2021/12/05 16:38:46;;;;;;;11.48;2.75;;;7.20;99.90;;;;;;6153751;23;20001;-90
2021/12/05 16:41:24;;;;;;;16.80;5.43;;;7.10;99.90;;;;;;6154164;23;20013;-90
2021/12/05 16:43:52;;;;;;;;;;;7.10;99.90;;;;;;6154214;23;20033;-92
2021/12/05 16:46:30;;;;;;;24.75;6.47;;;7.10;99.90;;;;;;6154765;23;19906;-89
2021/12/05 16:48:58;;;;;;;;;;;7.10;99.90;;;;;;6155647;23;20012;-90
2021/12/05 16:51:50;;;;;;;21.30;4.85;;;7.10;99.90;;;;;;6153553;23;19901;-91
2021/12/05 16:54:24;;;;;;;50.45;16.90;;;7.10;99.90;;;;;;6148842;23;20013;-90
2021/12/05 16:56:55;;;;;;;29.63;9.02;;;7.10;99.90;;;;;;6154994;23;20010;-93
2021/12/05 16:59:26;;;;;;;13.13;3.30;;;7.20;99.90;;;;;;6155024;23;20344;-90
2021/12/05 17:02:14;;;;;;;31.38;12.15;;;7.30;99.90;;;;;;6153821;23;20012;-92
2021/12/05 17:04:48;;;;;;;25.73;8.95;;;7.30;99.90;;;;;;6139981;23;20508;-93
2021/12/05 17:07:32;;;;;;;31.92;8.73;;;7.30;99.90;;;;;;6153896;23;20382;-91
2021/12/05 17:09:58;;;;;;;27.25;8.45;;;7.40;99.90;;;;;;6154619;23;20104;-92
2021/12/05 17:12:30;;;;;;;26.13;7.57;;;7.50;99.90;;;;;;6154683;23;20378;-90
2021/12/05 17:15:11;;;;;;;19.92;7.63;;;7.50;99.90;;;;;;6154762;23;20005;-91
2021/12/05 17:17:36;;;;;;;28.95;12.88;;;7.50;99.90;;;;;;6157387;23;20020;-92
2021/12/05 17:20:20;;;;;;;22.92;7.10;;;7.40;99.90;;;;;;6160939;23;20029;-91
2021/12/05 17:23:02;;;;;;;18.95;4.88;;;7.40;99.90;;;;;;6170110;23;20009;-93
2021/12/05 17:25:36;;;;;;;25.20;5.50;;;7.30;99.90;;;;;;6158463;23;20012;-93
2021/12/05 17:28:05;;;;;;;22.77;3.53;;;7.30;99.90;;;;;;6153302;23;20006;-91
2021/12/05 17:30:31;;;;;;;19.17;6.32;;;7.30;99.90;;;;;;6153433;23;20331;-90
2021/12/05 17:32:57;;;;;;;24.52;5.70;;;7.20;99.90;;;;;;6153623;23;20060;-90
2021/12/05 17:35:27;;;;;;;23.50;4.97;;;7.30;99.90;;;;;;6153356;23;20406;-90
2021/12/05 17:37:53;;;;;;;19.17;3.67;;;7.40;99.90;;;;;;6153500;23;20017;-92
2021/12/05 17:40:20;;;;;;;14.43;4.22;;;7.40;99.90;;;;;;6152904;23;20349;-93
2021/12/05 17:42:46;;;;;;;16.65;4.35;;;7.30;99.90;;;;;;6155017;23;20005;-93
2021/12/05 17:45:14;;;;;;;17.20;2.50;;;7.50;99.90;;;;;;6153894;23;20038;-92
2021/12/05 17:47:43;;;;;;;24.70;8.55;;;7.40;99.90;;;;;;6159091;23;20122;-89
2021/12/05 17:50:16;;;;;;;23.33;8.52;;;7.50;99.90;;;;;;6156843;23;20028;-90
2021/12/05 17:52:47;;;;;;;19.95;4.88;;;7.50;99.90;;;;;;6159719;23;20013;-93
2021/12/05 17:55:25;;;;;;;19.00;3.70;;;7.60;99.90;;;;;;6157613;23;20009;-92
2021/12/05 17:58:01;;;;;;;16.13;4.03;;;7.40;99.90;;;;;;6154594;23;20009;-90
2021/12/05 18:00:38;;;;;;;17.33;3.42;;;7.30;99.90;;;;;;6157208;23;20016;-93
2021/12/05 18:03:07;;;;;;;12.20;2.88;;;7.30;99.90;;;;;;6153882;23;20033;-91
2021/12/05 18:05:33;;;;;;;;;;;7.20;99.90;;;;;;6154017;23;20005;-90
2021/12/05 18:08:07;;;;;;;16.73;3.53;;;7.20;99.90;;;;;;6155738;23;20234;-91
2021/12/05 18:11:11;;;;;;;;;;;;;;;;;;;;;
2021/12/05 18:13:57;;;;;;;23.27;5.25;;;7.20;99.90;;;;;;6153201;23;20029;-95
2021/12/05 18:16:59;;;;;;;;;;;;;;;;;;;;;
2021/12/05 18:21:05;;;;;;;;;;;;;;;;;;;;;
2021/12/05 18:23:04;;;;;;;14.82;3.03;;;7.10;99.90;;;;;;6142487;23;20041;-92
2021/12/05 18:25:31;;;;;;;20.45;5.57;;;7.20;99.90;;;;;;6161199;23;20088;-89
2021/12/05 18:27:57;;;;;;;16.63;6.50;;;7.30;99.90;;;;;;6160741;23;20008;-90
2021/12/05 18:30:25;;;;;;;30.80;11.68;;;7.40;99.90;;;;;;6156142;23;20017;-92
2021/12/05 18:32:53;;;;;;;16.45;7.70;;;7.40;99.90;;;;;;6155721;23;20081;-92
2021/12/05 18:35:47;;;;;;;17.60;7.43;;;7.40;99.90;;;;;;6159310;23;20014;-94
2021/12/05 18:38:15;;;;;;;22.98;4.95;;;7.30;99.90;;;;;;6146808;23;20093;-92
2021/12/05 18:40:46;;;;;;;18.77;5.93;;;7.50;99.90;;;;;;6151890;23;20017;-90
2021/12/05 18:43:14;;;;;;;16.88;3.60;;;7.40;99.90;;;;;;6151271;23;20353;-89
2021/12/05 18:45:42;;;;;;;29.47;9.00;;;7.40;99.90;;;;;;6152000;23;20010;-92
2021/12/05 18:48:11;;;;;;;15.73;3.17;;;7.40;99.90;;;;;;6151431;23;20006;-90
2021/12/05 18:50:38;;;;;;;17.60;3.65;;;7.40;99.90;;;;;;6151506;23;20091;-92
2021/12/05 18:53:04;;;;;;;32.78;9.75;;;7.50;99.90;;;;;;6152444;23;20025;-92
2021/12/05 18:55:32;;;;;;;16.38;3.40;;;7.50;99.90;;;;;;6153471;23;20009;-89
2021/12/05 18:58:02;;;;;;;20.95;5.30;;;7.40;99.90;;;;;;6151829;23;20047;-92
2021/12/05 19:00:38;;;;;;;25.95;5.95;;;7.50;99.90;;;;;;6151725;23;20033;-91
2021/12/05 19:05:53;;;;;;;27.23;11.60;;;7.70;99.90;;;;;;6153847;23;20016;-91
2021/12/05 19:13:38;;;;;;;48.42;16.40;;;7.70;99.90;;;;;;6155019;23;20460;-93